Bruly Saint Martin, Louisiana
Current Conditions -  °F | °C
As of 11:55 AM on Saturday 20 Dec 2014 (Local Time) from KL38 Reporting Station
Overcast Overcast  
Wind Chill: 50°   Ceiling: 700
Heat Index: 50°   Visibility: 10mi
Dew Point: 50°   Wind: 7mph
Humidity: 100%   Direction: 10°N
Pressure: 30.15"   Gusts: NA
Location:  30.0336°N, 91.0413°W
Report Text: KL38 201755Z AUTO 01006KT 10SM OVC007 10/10 A3015 RMK AO2 T01000100 10101 20088
Loading
Personal Weather Stations






























Interactive Weather Map New forecast layout! Learn more

10-Day Weather Forecast

Advertisements
Track Severe Weather on mobile